sensor_id;sensor_type;location;lat;lon;timestamp;pressure;altitude;pressure_sealevel;temperature;humidity
9189;BME280;34313;50.780;6.084;2022-11-15T00:00:50;98839.34;;;11.72;96.33
9189;BME280;34313;50.780;6.084;2022-11-15T00:03:24;98831.22;;;11.75;95.92
9189;BME280;34313;50.780;6.084;2022-11-15T00:05:52;98814.88;;;11.70;95.82
9189;BME280;34313;50.780;6.084;2022-11-15T00:08:18;98833.38;;;11.81;95.92
9189;BME280;34313;50.780;6.084;2022-11-15T00:10:57;98827.75;;;11.86;95.67
9189;BME280;34313;50.780;6.084;2022-11-15T00:13:23;98832.31;;;11.84;95.70
9189;BME280;34313;50.780;6.084;2022-11-15T00:15:48;98836.00;;;11.94;95.61
9189;BME280;34313;50.780;6.084;2022-11-15T00:18:15;98829.75;;;11.95;95.34
9189;BME280;34313;50.780;6.084;2022-11-15T00:20:41;98837.44;;;11.98;95.23
9189;BME280;34313;50.780;6.084;2022-11-15T00:23:07;98826.56;;;11.90;95.27
9189;BME280;34313;50.780;6.084;2022-11-15T00:25:33;98837.00;;;12.04;95.00
9189;BME280;34313;50.780;6.084;2022-11-15T00:27:59;98833.00;;;11.99;94.92
9189;BME280;34313;50.780;6.084;2022-11-15T00:30:25;98835.75;;;11.97;94.87
9189;BME280;34313;50.780;6.084;2022-11-15T00:32:51;98826.28;;;11.95;94.82
9189;BME280;34313;50.780;6.084;2022-11-15T00:35:17;98813.28;;;11.91;94.88
9189;BME280;34313;50.780;6.084;2022-11-15T00:37:43;98833.09;;;11.97;94.58
9189;BME280;34313;50.780;6.084;2022-11-15T00:40:09;98826.28;;;11.95;94.70
9189;BME280;34313;50.780;6.084;2022-11-15T00:42:35;98831.66;;;11.93;95.08
9189;BME280;34313;50.780;6.084;2022-11-15T00:45:01;98809.06;;;11.89;94.89
9189;BME280;34313;50.780;6.084;2022-11-15T00:47:31;98811.38;;;11.69;95.52
9189;BME280;34313;50.780;6.084;2022-11-15T00:49:57;98816.41;;;11.72;96.17
9189;BME280;34313;50.780;6.084;2022-11-15T00:52:23;98809.41;;;11.60;96.46
9189;BME280;34313;50.780;6.084;2022-11-15T00:54:48;98805.09;;;11.59;96.24
9189;BME280;34313;50.780;6.084;2022-11-15T00:57:14;98820.13;;;11.70;96.22
9189;BME280;34313;50.780;6.084;2022-11-15T00:59:39;98824.19;;;11.63;96.59
9189;BME280;34313;50.780;6.084;2022-11-15T01:02:05;98827.03;;;11.60;96.64
9189;BME280;34313;50.780;6.084;2022-11-15T01:08:45;98833.50;;;11.56;96.67
9189;BME280;34313;50.780;6.084;2022-11-15T01:11:56;98815.94;;;11.43;96.96
9189;BME280;34313;50.780;6.084;2022-11-15T01:18:42;98785.53;;;11.38;96.75
9189;BME280;34313;50.780;6.084;2022-11-15T01:21:10;98797.56;;;11.42;96.85
9189;BME280;34313;50.780;6.084;2022-11-15T01:23:36;98789.47;;;11.56;96.32
9189;BME280;34313;50.780;6.084;2022-11-15T01:26:02;98797.97;;;11.48;96.85
9189;BME280;34313;50.780;6.084;2022-11-15T01:28:33;98804.09;;;11.49;96.75
9189;BME280;34313;50.780;6.084;2022-11-15T01:31:00;98806.03;;;11.58;96.32
9189;BME280;34313;50.780;6.084;2022-11-15T01:33:26;98811.72;;;11.65;95.76
9189;BME280;34313;50.780;6.084;2022-11-15T01:35:51;98810.13;;;11.62;95.52
9189;BME280;34313;50.780;6.084;2022-11-15T01:38:17;98801.22;;;11.52;95.77
9189;BME280;34313;50.780;6.084;2022-11-15T01:40:42;98786.16;;;11.41;96.28
9189;BME280;34313;50.780;6.084;2022-11-15T01:43:25;98806.63;;;11.50;96.11
9189;BME280;34313;50.780;6.084;2022-11-15T01:46:40;98801.84;;;11.31;97.14
9189;BME280;34313;50.780;6.084;2022-11-15T01:48:41;98793.63;;;11.23;97.35
9189;BME280;34313;50.780;6.084;2022-11-15T01:51:09;98783.53;;;11.17;97.30
9189;BME280;34313;50.780;6.084;2022-11-15T01:53:38;98802.41;;;11.24;97.41
9189;BME280;34313;50.780;6.084;2022-11-15T01:56:12;98793.69;;;11.10;97.81
9189;BME280;34313;50.780;6.084;2022-11-15T01:58:40;98791.19;;;10.96;98.54
9189;BME280;34313;50.780;6.084;2022-11-15T02:01:06;98775.84;;;10.64;99.64
9189;BME280;34313;50.780;6.084;2022-11-15T02:03:38;98771.31;;;10.53;100.00
9189;BME280;34313;50.780;6.084;2022-11-15T02:06:07;98794.00;;;10.56;100.00
9189;BME280;34313;50.780;6.084;2022-11-15T02:08:33;98780.50;;;10.48;100.00
9189;BME280;34313;50.780;6.084;2022-11-15T02:10:58;98794.63;;;10.59;100.00
9189;BME280;34313;50.780;6.084;2022-11-15T02:13:24;98774.59;;;10.44;100.00
9189;BME280;34313;50.780;6.084;2022-11-15T02:18:34;98745.53;;;10.33;100.00
9189;BME280;34313;50.780;6.084;2022-11-15T02:29:56;98790.91;;;10.75;100.00
9189;BME280;34313;50.780;6.084;2022-11-15T02:32:47;98783.63;;;10.78;100.00
9189;BME280;34313;50.780;6.084;2022-11-15T02:35:28;98799.09;;;10.83;100.00
9189;BME280;34313;50.780;6.084;2022-11-15T02:40:44;98784.94;;;10.97;100.00
9189;BME280;34313;50.780;6.084;2022-11-15T02:43:13;98769.94;;;11.10;99.89
9189;BME280;34313;50.780;6.084;2022-11-15T02:46:22;98789.22;;;11.24;99.85
9189;BME280;34313;50.780;6.084;2022-11-15T02:49:13;98771.97;;;11.31;99.08
9189;BME280;34313;50.780;6.084;2022-11-15T02:51:40;98767.03;;;11.26;99.55
9189;BME280;34313;50.780;6.084;2022-11-15T02:54:07;98761.94;;;11.36;99.32
9189;BME280;34313;50.780;6.084;2022-11-15T02:56:32;98776.00;;;11.48;99.70
9189;BME280;34313;50.780;6.084;2022-11-15T02:59:13;98780.94;;;11.52;99.69
9189;BME280;34313;50.780;6.084;2022-11-15T03:10:32;98764.09;;;11.42;100.00
9189;BME280;34313;50.780;6.084;2022-11-15T03:13:51;98748.00;;;11.34;100.00
9189;BME280;34313;50.780;6.084;2022-11-15T03:15:57;98762.41;;;11.41;100.00
9189;BME280;34313;50.780;6.084;2022-11-15T03:18:43;98749.47;;;11.38;100.00
9189;BME280;34313;50.780;6.084;2022-11-15T03:21:14;98735.09;;;11.42;100.00
9189;BME280;34313;50.780;6.084;2022-11-15T03:23:41;98744.22;;;11.49;100.00
9189;BME280;34313;50.780;6.084;2022-11-15T03:26:11;98759.25;;;11.60;100.00
9189;BME280;34313;50.780;6.084;2022-11-15T03:28:43;98756.00;;;11.57;100.00
9189;BME280;34313;50.780;6.084;2022-11-15T03:31:14;98744.94;;;11.51;100.00
9189;BME280;34313;50.780;6.084;2022-11-15T03:34:02;98762.63;;;11.62;100.00
9189;BME280;34313;50.780;6.084;2022-11-15T03:36:30;98760.22;;;11.59;100.00
9189;BME280;34313;50.780;6.084;2022-11-15T03:39:01;98745.34;;;11.58;100.00
9189;BME280;34313;50.780;6.084;2022-11-15T03:41:53;98741.03;;;11.57;100.00
9189;BME280;34313;50.780;6.084;2022-11-15T03:49:39;98736.81;;;11.30;100.00
9189;BME280;34313;50.780;6.084;2022-11-15T03:52:11;98733.13;;;11.09;100.00
9189;BME280;34313;50.780;6.084;2022-11-15T03:54:47;98723.16;;;10.88;100.00
9189;BME280;34313;50.780;6.084;2022-11-15T03:57:13;98722.28;;;10.76;100.00
9189;BME280;34313;50.780;6.084;2022-11-15T03:59:38;98753.56;;;10.81;100.00
9189;BME280;34313;50.780;6.084;2022-11-15T04:02:04;98732.50;;;10.68;100.00
9189;BME280;34313;50.780;6.084;2022-11-15T04:04:29;98739.72;;;10.90;100.00
9189;BME280;34313;50.780;6.084;2022-11-15T04:06:54;98746.56;;;10.93;100.00
9189;BME280;34313;50.780;6.084;2022-11-15T04:09:20;98749.09;;;10.94;100.00
9189;BME280;34313;50.780;6.084;2022-11-15T04:11:45;98732.78;;;10.89;100.00
9189;BME280;34313;50.780;6.084;2022-11-15T04:14:11;98746.00;;;11.01;100.00
9189;BME280;34313;50.780;6.084;2022-11-15T04:16:36;98722.13;;;10.91;100.00
9189;BME280;34313;50.780;6.084;2022-11-15T04:19:02;98712.53;;;10.90;100.00
9189;BME280;34313;50.780;6.084;2022-11-15T04:21:46;98719.38;;;10.92;100.00
9189;BME280;34313;50.780;6.084;2022-11-15T04:24:30;98719.94;;;11.09;100.00
9189;BME280;34313;50.780;6.084;2022-11-15T04:26:55;98728.25;;;11.15;100.00
9189;BME280;34313;50.780;6.084;2022-11-15T04:29:21;98742.56;;;11.24;100.00
9189;BME280;34313;50.780;6.084;2022-11-15T04:32:06;98737.31;;;11.35;100.00
9189;BME280;34313;50.780;6.084;2022-11-15T04:34:32;98754.16;;;11.46;100.00
9189;BME280;34313;50.780;6.084;2022-11-15T04:36:58;98734.25;;;11.42;100.00
9189;BME280;34313;50.780;6.084;2022-11-15T04:39:39;98752.63;;;11.43;100.00
9189;BME280;34313;50.780;6.084;2022-11-15T04:42:05;98751.09;;;11.52;100.00
9189;BME280;34313;50.780;6.084;2022-11-15T04:44:31;98744.81;;;11.42;100.00
9189;BME280;34313;50.780;6.084;2022-11-15T04:46:56;98752.72;;;11.42;100.00
9189;BME280;34313;50.780;6.084;2022-11-15T04:49:22;98752.94;;;11.39;100.00
9189;BME280;34313;50.780;6.084;2022-11-15T04:51:47;98747.63;;;11.27;100.00
9189;BME280;34313;50.780;6.084;2022-11-15T04:54:13;98715.91;;;11.16;100.00
9189;BME280;34313;50.780;6.084;2022-11-15T04:56:38;98731.00;;;11.14;100.00
9189;BME280;34313;50.780;6.084;2022-11-15T04:59:04;98741.44;;;11.15;100.00
9189;BME280;34313;50.780;6.084;2022-11-15T05:01:29;98734.31;;;11.05;100.00
9189;BME280;34313;50.780;6.084;2022-11-15T05:03:54;98742.66;;;10.98;100.00
9189;BME280;34313;50.780;6.084;2022-11-15T05:06:38;98743.47;;;10.99;100.00
9189;BME280;34313;50.780;6.084;2022-11-15T05:09:04;98743.78;;;11.07;100.00
9189;BME280;34313;50.780;6.084;2022-11-15T05:11:29;98741.75;;;11.11;100.00
9189;BME280;34313;50.780;6.084;2022-11-15T05:13:55;98749.69;;;11.11;100.00
9189;BME280;34313;50.780;6.084;2022-11-15T05:16:20;98737.09;;;11.14;100.00
9189;BME280;34313;50.780;6.084;2022-11-15T05:18:46;98722.47;;;11.10;99.26
9189;BME280;34313;50.780;6.084;2022-11-15T05:21:14;98741.88;;;11.09;99.18
9189;BME280;34313;50.780;6.084;2022-11-15T05:23:40;98729.72;;;10.83;99.62
9189;BME280;34313;50.780;6.084;2022-11-15T05:26:07;98742.91;;;10.83;99.69
9189;BME280;34313;50.780;6.084;2022-11-15T05:28:33;98732.25;;;10.84;98.74
9189;BME280;34313;50.780;6.084;2022-11-15T05:31:10;98741.09;;;10.83;98.43
9189;BME280;34313;50.780;6.084;2022-11-15T05:33:37;98740.84;;;10.75;98.55
9189;BME280;34313;50.780;6.084;2022-11-15T05:38:48;98729.88;;;10.68;98.91
9189;BME280;34313;50.780;6.084;2022-11-15T05:41:17;98719.75;;;10.62;98.94
9189;BME280;34313;50.780;6.084;2022-11-15T05:43:53;98736.59;;;10.85;98.95
9189;BME280;34313;50.780;6.084;2022-11-15T05:46:21;98705.66;;;10.63;98.93
9189;BME280;34313;50.780;6.084;2022-11-15T05:49:12;98750.25;;;10.90;99.79
9189;BME280;34313;50.780;6.084;2022-11-15T05:51:39;98740.72;;;10.76;100.00
9189;BME280;34313;50.780;6.084;2022-11-15T05:54:07;98728.44;;;10.64;100.00
9189;BME280;34313;50.780;6.084;2022-11-15T05:56:33;98738.19;;;10.75;100.00
9189;BME280;34313;50.780;6.084;2022-11-15T05:58:58;98749.06;;;10.70;100.00
9189;BME280;34313;50.780;6.084;2022-11-15T06:01:25;98749.16;;;10.69;100.00
9189;BME280;34313;50.780;6.084;2022-11-15T06:03:51;98768.53;;;10.81;100.00
9189;BME280;34313;50.780;6.084;2022-11-15T06:06:16;98769.81;;;10.75;100.00
9189;BME280;34313;50.780;6.084;2022-11-15T06:08:42;98770.16;;;10.70;100.00
9189;BME280;34313;50.780;6.084;2022-11-15T06:11:13;98754.78;;;10.64;100.00
9189;BME280;34313;50.780;6.084;2022-11-15T06:13:55;98783.22;;;10.72;100.00
9189;BME280;34313;50.780;6.084;2022-11-15T06:16:57;98755.31;;;10.56;100.00
9189;BME280;34313;50.780;6.084;2022-11-15T06:19:32;98773.63;;;10.58;100.00
9189;BME280;34313;50.780;6.084;2022-11-15T06:22:00;98760.47;;;10.58;100.00
9189;BME280;34313;50.780;6.084;2022-11-15T06:24:25;98750.69;;;10.47;100.00
9189;BME280;34313;50.780;6.084;2022-11-15T06:26:51;98778.81;;;10.59;100.00
9189;BME280;34313;50.780;6.084;2022-11-15T06:29:17;98776.69;;;10.65;100.00
9189;BME280;34313;50.780;6.084;2022-11-15T06:34:35;98754.69;;;10.40;100.00
9189;BME280;34313;50.780;6.084;2022-11-15T06:37:08;98759.72;;;10.30;100.00
9189;BME280;34313;50.780;6.084;2022-11-15T06:39:37;98772.88;;;10.30;100.00
9189;BME280;34313;50.780;6.084;2022-11-15T06:42:02;98784.09;;;10.34;100.00
9189;BME280;34313;50.780;6.084;2022-11-15T06:44:28;98786.88;;;10.31;100.00
9189;BME280;34313;50.780;6.084;2022-11-15T06:46:53;98792.09;;;10.32;100.00
9189;BME280;34313;50.780;6.084;2022-11-15T06:49:19;98772.78;;;10.19;100.00
9189;BME280;34313;50.780;6.084;2022-11-15T06:51:44;98785.84;;;10.20;100.00
9189;BME280;34313;50.780;6.084;2022-11-15T06:54:09;98797.13;;;10.22;100.00
9189;BME280;34313;50.780;6.084;2022-11-15T07:00:25;98767.94;;;10.00;100.00
9189;BME280;34313;50.780;6.084;2022-11-15T07:03:00;98769.81;;;10.11;100.00
9189;BME280;34313;50.780;6.084;2022-11-15T07:05:27;98787.53;;;10.21;100.00
9189;BME280;34313;50.780;6.084;2022-11-15T07:07:53;98803.47;;;10.33;100.00
9189;BME280;34313;50.780;6.084;2022-11-15T07:10:19;98809.84;;;10.29;100.00
9189;BME280;34313;50.780;6.084;2022-11-15T07:12:48;98802.28;;;10.24;100.00
9189;BME280;34313;50.780;6.084;2022-11-15T07:15:15;98795.75;;;10.17;100.00
9189;BME280;34313;50.780;6.084;2022-11-15T07:17:40;98808.28;;;10.26;100.00
9189;BME280;34313;50.780;6.084;2022-11-15T07:20:06;98810.19;;;10.24;100.00
9189;BME280;34313;50.780;6.084;2022-11-15T07:22:31;98805.22;;;10.19;97.29
9189;BME280;34313;50.780;6.084;2022-11-15T07:24:57;98807.53;;;10.11;96.83
9189;BME280;34313;50.780;6.084;2022-11-15T07:27:22;98808.94;;;10.17;95.27
9189;BME280;34313;50.780;6.084;2022-11-15T07:29:47;98803.75;;;10.15;93.24
9189;BME280;34313;50.780;6.084;2022-11-15T07:32:13;98803.75;;;10.15;93.54
9189;BME280;34313;50.780;6.084;2022-11-15T07:34:38;98795.31;;;10.10;91.97
9189;BME280;34313;50.780;6.084;2022-11-15T07:37:04;98810.50;;;10.07;91.98
9189;BME280;34313;50.780;6.084;2022-11-15T07:39:29;98812.69;;;10.13;91.31
9189;BME280;34313;50.780;6.084;2022-11-15T07:41:55;98818.19;;;10.22;90.01
9189;BME280;34313;50.780;6.084;2022-11-15T07:44:40;98811.22;;;10.21;90.04
9189;BME280;34313;50.780;6.084;2022-11-15T07:47:05;98818.00;;;10.26;90.31
9189;BME280;34313;50.780;6.084;2022-11-15T07:49:31;98821.59;;;10.37;89.37
9189;BME280;34313;50.780;6.084;2022-11-15T07:51:56;98824.44;;;10.47;88.89
9189;BME280;34313;50.780;6.084;2022-11-15T07:54:21;98817.28;;;10.49;89.20
9189;BME280;34313;50.780;6.084;2022-11-15T07:56:47;98815.25;;;10.66;88.98
9189;BME280;34313;50.780;6.084;2022-11-15T07:59:13;98809.47;;;10.73;87.18
9189;BME280;34313;50.780;6.084;2022-11-15T08:01:41;98820.81;;;11.00;86.98
9189;BME280;34313;50.780;6.084;2022-11-15T08:04:07;98822.53;;;11.25;85.87
9189;BME280;34313;50.780;6.084;2022-11-15T08:06:32;98798.69;;;11.50;84.31
9189;BME280;34313;50.780;6.084;2022-11-15T08:08:58;98802.50;;;11.70;82.11
9189;BME280;34313;50.780;6.084;2022-11-15T08:11:23;98799.66;;;11.85;80.15
9189;BME280;34313;50.780;6.084;2022-11-15T08:13:48;98794.06;;;11.89;78.37
9189;BME280;34313;50.780;6.084;2022-11-15T08:16:14;98790.41;;;12.03;77.43
9189;BME280;34313;50.780;6.084;2022-11-15T08:18:39;98788.53;;;12.17;76.38
9189;BME280;34313;50.780;6.084;2022-11-15T08:21:04;98791.56;;;12.35;75.31
9189;BME280;34313;50.780;6.084;2022-11-15T08:23:30;98781.97;;;12.45;74.12
9189;BME280;34313;50.780;6.084;2022-11-15T08:26:03;98788.06;;;12.45;73.04
9189;BME280;34313;50.780;6.084;2022-11-15T08:28:30;98795.84;;;12.36;73.16
9189;BME280;34313;50.780;6.084;2022-11-15T08:30:56;98781.69;;;12.37;72.56
9189;BME280;34313;50.780;6.084;2022-11-15T08:33:21;98786.41;;;12.56;72.34
9189;BME280;34313;50.780;6.084;2022-11-15T08:35:46;98788.94;;;12.57;71.44
9189;BME280;34313;50.780;6.084;2022-11-15T08:38:12;98777.88;;;12.52;70.94
9189;BME280;34313;50.780;6.084;2022-11-15T08:40:38;98789.75;;;12.69;71.13
9189;BME280;34313;50.780;6.084;2022-11-15T08:43:03;98783.03;;;12.54;70.33
9189;BME280;34313;50.780;6.084;2022-11-15T08:45:30;98787.25;;;12.67;70.53
9189;BME280;34313;50.780;6.084;2022-11-15T08:47:56;98772.94;;;12.59;70.27
9189;BME280;34313;50.780;6.084;2022-11-15T08:50:21;98780.03;;;12.70;70.01
9189;BME280;34313;50.780;6.084;2022-11-15T08:52:46;98767.88;;;12.67;69.79
9189;BME280;34313;50.780;6.084;2022-11-15T08:55:13;98769.72;;;12.55;68.96
9189;BME280;34313;50.780;6.084;2022-11-15T08:57:39;98773.78;;;12.37;69.45
9189;BME280;34313;50.780;6.084;2022-11-15T09:00:05;98759.59;;;12.60;69.24
9189;BME280;34313;50.780;6.084;2022-11-15T09:02:30;98759.81;;;12.91;67.79
9189;BME280;34313;50.780;6.084;2022-11-15T09:04:56;98760.47;;;13.38;66.42
9189;BME280;34313;50.780;6.084;2022-11-15T09:07:21;98762.38;;;13.69;64.53
9189;BME280;34313;50.780;6.084;2022-11-15T09:09:46;98752.84;;;13.98;63.68
9189;BME280;34313;50.780;6.084;2022-11-15T09:12:12;98748.81;;;14.04;62.41
9189;BME280;34313;50.780;6.084;2022-11-15T09:14:37;98747.81;;;14.16;62.00
9189;BME280;34313;50.780;6.084;2022-11-15T09:17:03;98741.66;;;14.16;60.93
9189;BME280;34313;50.780;6.084;2022-11-15T09:19:28;98729.56;;;14.02;60.27
9189;BME280;34313;50.780;6.084;2022-11-15T09:21:54;98730.00;;;14.28;59.71
9189;BME280;34313;50.780;6.084;2022-11-15T09:24:19;98730.66;;;14.51;59.11
9189;BME280;34313;50.780;6.084;2022-11-15T09:26:45;98726.22;;;14.52;57.68
9189;BME280;34313;50.780;6.084;2022-11-15T09:29:10;98729.56;;;14.23;56.71
9189;BME280;34313;50.780;6.084;2022-11-15T09:31:36;98721.47;;;14.25;57.62
9189;BME280;34313;50.780;6.084;2022-11-15T09:34:01;98723.31;;;14.03;57.52
9189;BME280;34313;50.780;6.084;2022-11-15T09:36:26;98708.38;;;13.81;56.94
9189;BME280;34313;50.780;6.084;2022-11-15T09:38:52;98713.69;;;13.81;56.72
9189;BME280;34313;50.780;6.084;2022-11-15T09:49:26;98707.88;;;13.87;56.37
9189;BME280;34313;50.780;6.084;2022-11-15T09:51:53;98709.38;;;13.80;55.88
9189;BME280;34313;50.780;6.084;2022-11-15T09:57:03;98709.03;;;13.94;55.40
9189;BME280;34313;50.780;6.084;2022-11-15T09:59:55;98705.09;;;14.10;54.76
9189;BME280;34313;50.780;6.084;2022-11-15T10:05:08;98701.59;;;13.88;53.38
9189;BME280;34313;50.780;6.084;2022-11-15T10:10:32;98703.38;;;13.57;53.29
9189;BME280;34313;50.780;6.084;2022-11-15T10:13:01;98704.41;;;13.66;53.31
9189;BME280;34313;50.780;6.084;2022-11-15T10:15:26;98700.19;;;13.63;52.06
9189;BME280;34313;50.780;6.084;2022-11-15T10:18:06;98692.31;;;13.73;52.28
9189;BME280;34313;50.780;6.084;2022-11-15T10:23:13;98687.47;;;13.99;51.91
9189;BME280;34313;50.780;6.084;2022-11-15T10:25:39;98683.63;;;13.92;51.37
9189;BME280;34313;50.780;6.084;2022-11-15T10:28:22;98683.00;;;13.99;51.70
9189;BME280;34313;50.780;6.084;2022-11-15T10:30:53;98673.75;;;14.15;51.30
9189;BME280;34313;50.780;6.084;2022-11-15T10:33:35;98664.84;;;14.26;51.22
9189;BME280;34313;50.780;6.084;2022-11-15T10:41:14;98675.72;;;14.23;50.92
9189;BME280;34313;50.780;6.084;2022-11-15T10:43:40;98656.84;;;14.16;50.97
9189;BME280;34313;50.780;6.084;2022-11-15T10:46:19;98653.75;;;14.11;51.24
9189;BME280;34313;50.780;6.084;2022-11-15T10:48:45;98648.63;;;14.19;50.49
9189;BME280;34313;50.780;6.084;2022-11-15T10:51:26;98642.78;;;14.25;51.31
9189;BME280;34313;50.780;6.084;2022-11-15T10:53:57;98634.44;;;14.30;50.80
9189;BME280;34313;50.780;6.084;2022-11-15T10:56:25;98636.72;;;14.44;51.09
9189;BME280;34313;50.780;6.084;2022-11-15T10:58:54;98634.09;;;14.54;50.59
9189;BME280;34313;50.780;6.084;2022-11-15T11:01:28;98637.56;;;14.45;50.38
9189;BME280;34313;50.780;6.084;2022-11-15T11:04:05;98623.53;;;14.13;49.95
9189;BME280;34313;50.780;6.084;2022-11-15T11:09:37;98623.38;;;14.15;49.66
9189;BME280;34313;50.780;6.084;2022-11-15T11:12:05;98613.41;;;13.97;49.36
9189;BME280;34313;50.780;6.084;2022-11-15T11:14:35;98623.91;;;14.09;49.46
9189;BME280;34313;50.780;6.084;2022-11-15T11:20:10;98612.84;;;13.94;49.98
9189;BME280;34313;50.780;6.084;2022-11-15T11:30:59;98575.13;;;14.81;50.23
9189;BME280;34313;50.780;6.084;2022-11-15T11:36:27;98559.91;;;14.73;51.04
9189;BME280;34313;50.780;6.084;2022-11-15T11:39:08;98561.00;;;14.61;51.67
9189;BME280;34313;50.780;6.084;2022-11-15T11:47:09;98533.09;;;14.77;53.06
9189;BME280;34313;50.780;6.084;2022-11-15T11:49:51;98534.78;;;14.97;52.76
9189;BME280;34313;50.780;6.084;2022-11-15T11:55:14;98528.06;;;15.03;54.04
9189;BME280;34313;50.780;6.084;2022-11-15T11:57:52;98513.38;;;15.18;53.30
9189;BME280;34313;50.780;6.084;2022-11-15T12:00:24;98520.09;;;15.03;53.75
9189;BME280;34313;50.780;6.084;2022-11-15T12:05:54;98488.72;;;14.88;55.00
9189;BME280;34313;50.780;6.084;2022-11-15T12:08:25;98493.28;;;14.86;55.52
9189;BME280;34313;50.780;6.084;2022-11-15T12:10:59;98490.22;;;14.81;55.82
9189;BME280;34313;50.780;6.084;2022-11-15T12:13:29;98474.59;;;14.88;55.88
9189;BME280;34313;50.780;6.084;2022-11-15T12:16:12;98473.09;;;14.66;56.60
9189;BME280;34313;50.780;6.084;2022-11-15T12:18:49;98461.22;;;14.60;57.16
9189;BME280;34313;50.780;6.084;2022-11-15T12:24:03;98467.59;;;14.48;57.89
9189;BME280;34313;50.780;6.084;2022-11-15T12:26:38;98465.50;;;14.32;58.55
9189;BME280;34313;50.780;6.084;2022-11-15T12:29:32;98460.75;;;14.16;59.28
9189;BME280;34313;50.780;6.084;2022-11-15T12:31:56;98463.28;;;14.37;59.09
9189;BME280;34313;50.780;6.084;2022-11-15T12:36:53;98443.75;;;14.57;58.60
9189;BME280;34313;50.780;6.084;2022-11-15T12:39:18;98430.09;;;14.72;58.38
9189;BME280;34313;50.780;6.084;2022-11-15T12:47:22;98432.28;;;15.34;57.42
9189;BME280;34313;50.780;6.084;2022-11-15T12:49:48;98432.03;;;15.55;56.69
9189;BME280;34313;50.780;6.084;2022-11-15T12:52:14;98430.28;;;15.45;56.09
9189;BME280;34313;50.780;6.084;2022-11-15T13:02:22;98406.06;;;14.73;57.96
9189;BME280;34313;50.780;6.084;2022-11-15T13:04:50;98402.47;;;14.74;58.33
9189;BME280;34313;50.780;6.084;2022-11-15T13:09:59;98391.72;;;14.66;58.51
9189;BME280;34313;50.780;6.084;2022-11-15T13:14:56;98375.19;;;14.92;58.41
9189;BME280;34313;50.780;6.084;2022-11-15T13:17:26;98379.47;;;15.03;58.13
9189;BME280;34313;50.780;6.084;2022-11-15T13:28:31;98365.97;;;14.86;57.33
9189;BME280;34313;50.780;6.084;2022-11-15T13:30:59;98356.38;;;14.56;58.18
9189;BME280;34313;50.780;6.084;2022-11-15T13:33:33;98345.09;;;14.54;58.15
9189;BME280;34313;50.780;6.084;2022-11-15T13:36:22;98349.03;;;14.40;58.70
9189;BME280;34313;50.780;6.084;2022-11-15T13:39:43;98347.91;;;14.33;59.05
9189;BME280;34313;50.780;6.084;2022-11-15T13:41:48;98345.53;;;14.30;59.23
9189;BME280;34313;50.780;6.084;2022-11-15T13:44:23;98343.63;;;14.22;59.56
9189;BME280;34313;50.780;6.084;2022-11-15T13:46:49;98340.56;;;14.17;59.83
9189;BME280;34313;50.780;6.084;2022-11-15T13:49:29;98334.13;;;14.19;60.19
9189;BME280;34313;50.780;6.084;2022-11-15T13:51:55;98336.94;;;14.08;60.41
9189;BME280;34313;50.780;6.084;2022-11-15T13:54:29;98329.94;;;14.17;60.61
9189;BME280;34313;50.780;6.084;2022-11-15T13:59:29;98320.03;;;14.19;60.46
9189;BME280;34313;50.780;6.084;2022-11-15T14:01:58;98322.41;;;14.22;60.20
9189;BME280;34313;50.780;6.084;2022-11-15T14:04:26;98317.94;;;14.23;60.30
9189;BME280;34313;50.780;6.084;2022-11-15T14:06:58;98308.34;;;14.12;60.37
9189;BME280;34313;50.780;6.084;2022-11-15T14:09:38;98306.66;;;14.11;60.27
9189;BME280;34313;50.780;6.084;2022-11-15T14:12:28;98302.03;;;14.13;60.44
9189;BME280;34313;50.780;6.084;2022-11-15T14:14:55;98297.16;;;14.18;60.38
9189;BME280;34313;50.780;6.084;2022-11-15T14:17:34;98290.63;;;14.12;60.79
9189;BME280;34313;50.780;6.084;2022-11-15T14:20:00;98287.84;;;14.14;60.06
9189;BME280;34313;50.780;6.084;2022-11-15T14:22:29;98292.16;;;14.15;59.70
9189;BME280;34313;50.780;6.084;2022-11-15T14:27:41;98280.47;;;14.08;59.18
9189;BME280;34313;50.780;6.084;2022-11-15T14:30:27;98277.81;;;14.08;59.63
9189;BME280;34313;50.780;6.084;2022-11-15T14:32:53;98271.78;;;14.06;59.88
9189;BME280;34313;50.780;6.084;2022-11-15T14:35:20;98268.72;;;14.00;59.81
9189;BME280;34313;50.780;6.084;2022-11-15T14:37:46;98277.53;;;14.01;59.67
9189;BME280;34313;50.780;6.084;2022-11-15T14:40:20;98264.28;;;13.91;59.68
9189;BME280;34313;50.780;6.084;2022-11-15T14:42:48;98271.00;;;13.86;60.00
9189;BME280;34313;50.780;6.084;2022-11-15T14:45:20;98255.94;;;13.86;60.06
9189;BME280;34313;50.780;6.084;2022-11-15T14:47:45;98261.25;;;13.76;60.26
9189;BME280;34313;50.780;6.084;2022-11-15T14:50:20;98259.97;;;13.80;60.46
9189;BME280;34313;50.780;6.084;2022-11-15T14:52:46;98253.84;;;13.70;60.96
9189;BME280;34313;50.780;6.084;2022-11-15T14:55:24;98254.53;;;13.72;61.34
9189;BME280;34313;50.780;6.084;2022-11-15T14:57:50;98246.72;;;13.71;61.04
9189;BME280;34313;50.780;6.084;2022-11-15T15:00:16;98242.00;;;13.65;61.38
9189;BME280;34313;50.780;6.084;2022-11-15T15:02:43;98225.28;;;13.54;61.75
9189;BME280;34313;50.780;6.084;2022-11-15T15:05:16;98232.81;;;13.59;62.03
9189;BME280;34313;50.780;6.084;2022-11-15T15:07:42;98234.91;;;13.55;62.40
9189;BME280;34313;50.780;6.084;2022-11-15T15:10:08;98221.66;;;13.46;63.17
9189;BME280;34313;50.780;6.084;2022-11-15T15:12:34;98215.84;;;13.52;63.12
9189;BME280;34313;50.780;6.084;2022-11-15T15:14:59;98208.03;;;13.50;63.18
9189;BME280;34313;50.780;6.084;2022-11-15T15:17:25;98205.78;;;13.46;63.50
9189;BME280;34313;50.780;6.084;2022-11-15T15:19:50;98205.78;;;13.46;63.97
9189;BME280;34313;50.780;6.084;2022-11-15T15:22:18;98177.53;;;13.36;63.98
9189;BME280;34313;50.780;6.084;2022-11-15T15:24:47;98189.09;;;13.45;64.12
9189;BME280;34313;50.780;6.084;2022-11-15T15:27:12;98196.19;;;13.35;64.59
9189;BME280;34313;50.780;6.084;2022-11-15T15:29:38;98179.63;;;13.33;64.45
9189;BME280;34313;50.780;6.084;2022-11-15T15:32:04;98170.41;;;13.27;64.50
9189;BME280;34313;50.780;6.084;2022-11-15T15:34:30;98190.75;;;13.36;64.42
9189;BME280;34313;50.780;6.084;2022-11-15T15:39:39;98183.09;;;13.33;63.69